Weather History for Defuniak Springs, Defuniak Sp, FL

Change the Weather History Date:

Sunday, January 26, 2014

  Actual Average (KCEW) Record (KCEW)
Temperature  
Mean Temperature 44 °F -  
Max Temperature 57 °F 58 °F 79 °F (1950)
Min Temperature 32 °F 32 °F 18 °F (2001)
Degree Days  
Heating Degree Days 20    
Moisture  
Dew Point 38 °F    
Average Humidity 76    
Maximum Humidity 100    
Minimum Humidity 33    
Precipitation  
Precipitation 0.00 in - - ()
Sea Level Pressure  
Sea Level Pressure 30.00 in    
Wind  
Wind Speed 2 mph (South)    
Max Wind Speed 8 mph    
Max Gust Speed -    
Visibility 10 miles    
Events      
Averages and records for this station are not official NWS values.
T = Trace of Precipitation, MM = Missing Value Source: NWS Daily Summary

Daily Weather History Graph

Daily Weather History Graph

Search for Another Location

Airport:

Trip Planner

Search our weather history database for the weather conditions in past years. The results will help you decide how hot, cold, wet, or windy it might be!

Date:

Astronomy

Jan. 26, 2014 Rise Set
Actual Time 6:39 AM CST 5:15 PM CST
Civil Twilight 6:13 AM CST 5:40 PM CST
Nautical Twilight 5:44 AM CST 6:10 PM CST
Astronomical Twilight 5:15 AM CST 6:38 PM CST
Moon 2:14 AM CST (1/26) 1:06 PM CST (1/26)
Length of Visible Light 11h 27m
Length of Day
10h 36m
Waning Crescent, 23% of the Moon is Illuminated
Jan 26
Waning Crescent
Jan 30
New
Feb 6
First Quarter
Feb 14
Full
Feb 22
Last Quarter

Hourly Weather History & Observations

Time (CST) Temp. Windchill Dew Point Humidity Pressure Visibility Wind Dir Wind Speed Gust Speed Precip Events Conditions
12:15 AM 38.7 °F - 36.7 °F 93% 30.04 in 10.0 mi Calm Calm - N/A   Clear
12:35 AM 38.3 °F - 36.3 °F 93% 30.03 in 10.0 mi Calm Calm - N/A   Clear
12:55 AM 37.8 °F - 35.8 °F 93% 30.03 in 10.0 mi Calm Calm - N/A   Clear
1:15 AM 35.4 °F - 35.4 °F 100% 30.03 in 10.0 mi Calm Calm - N/A   Clear
1:35 AM 34.9 °F 32.0 °F 34.2 °F 97% 30.03 in 10.0 mi WSW 3.5 mph - N/A   Clear
1:55 AM 36.3 °F - 36.1 °F 99% 30.02 in 10.0 mi Calm Calm - N/A   Clear
2:15 AM 36.3 °F - 34.9 °F 95% 30.02 in 10.0 mi Calm Calm - N/A   Clear
2:35 AM 33.3 °F - 33.1 °F 99% 30.02 in 7.0 mi Calm Calm - N/A   Clear
2:55 AM 32.9 °F - 32.9 °F 100% 30.03 in 10.0 mi Calm Calm - N/A   Clear
3:15 AM 33.4 °F - 33.4 °F 100% 30.03 in 7.0 mi Calm Calm - N/A   Clear
3:30 AM 32.9 °F - 32.7 °F 99% 30.03 in 10.0 mi Calm Calm - N/A   Clear
3:55 AM 36.1 °F 33.5 °F 35.8 °F 99% 30.03 in 10.0 mi West 3.5 mph - N/A   Clear
4:15 AM 35.8 °F 33.0 °F 35.2 °F 98% 30.03 in 10.0 mi NW 3.5 mph - N/A   Clear
4:35 AM 35.4 °F 32.6 °F 34.7 °F 97% 30.03 in 10.0 mi NW 3.5 mph - N/A   Clear
4:55 AM 34.5 °F - 34.2 °F 99% 30.03 in 7.0 mi Calm Calm - N/A   Clear
5:15 AM 34.2 °F - 34.0 °F 99% 30.04 in 7.0 mi Calm Calm - N/A   Clear
5:35 AM 34.0 °F - 34.0 °F 100% 30.04 in 10.0 mi Calm Calm - N/A   Clear
5:55 AM 34.7 °F - 34.2 °F 98% 30.04 in 10.0 mi Calm Calm - N/A   Clear
6:15 AM 34.5 °F - 34.2 °F 99% 30.04 in 10.0 mi Calm Calm - N/A   Clear
6:35 AM 34.9 °F - 34.2 °F 97% 30.04 in 10.0 mi Calm Calm - N/A   Clear
6:55 AM 35.6 °F - 34.9 °F 97% 30.05 in 10.0 mi Calm Calm - N/A   Clear
7:15 AM 35.8 °F - 34.7 °F 96% 30.05 in 10.0 mi Calm Calm - N/A   Clear
7:35 AM 37.4 °F - 36.3 °F 96% 30.05 in 10.0 mi Calm Calm - N/A   Clear
7:55 AM 39.6 °F - 38.3 °F 95% 30.06 in 10.0 mi Calm Calm - N/A   Clear
8:15 AM 41.4 °F - 40.1 °F 95% 30.06 in 10.0 mi Calm Calm - N/A   Clear
8:35 AM 42.3 °F - 39.9 °F 91% 30.07 in 10.0 mi Calm Calm - N/A   Clear
8:55 AM 43.3 °F - 39.7 °F 87% 30.07 in 10.0 mi Calm Calm - N/A   Clear
9:15 AM 45.1 °F - 38.7 °F 78% 30.08 in 10.0 mi Calm Calm - N/A   Clear
9:35 AM 47.3 °F - 38.1 °F 70% 30.08 in 10.0 mi Calm Calm - N/A   Clear
9:55 AM 49.3 °F - 33.4 °F 54% 30.09 in 10.0 mi Calm Calm - N/A   Clear
10:15 AM 50.7 °F - 32.9 °F 51% 30.08 in 10.0 mi SSE 4.6 mph - N/A   Clear
10:35 AM 51.8 °F - 33.6 °F 50% 30.08 in 10.0 mi SSE 5.8 mph - N/A   Clear
10:55 AM 54.0 °F - 33.6 °F 46% 30.08 in 10.0 mi South 3.5 mph - N/A   Clear
11:15 AM 54.9 °F - 31.5 °F 41% 30.07 in 10.0 mi SSW 4.6 mph - N/A   Clear
11:35 AM 56.3 °F - 30.2 °F 37% 30.05 in 10.0 mi SSW 5.8 mph - N/A   Clear
11:55 AM 55.9 °F - 29.1 °F 36% 30.04 in 10.0 mi South 4.6 mph - N/A   Clear
12:15 PM 56.1 °F - 29.3 °F 36% 30.02 in 10.0 mi SSW 5.8 mph - N/A   Clear
12:35 PM 57.6 °F - 28.6 °F 33% 30.01 in 10.0 mi SW 6.9 mph - N/A   Clear
12:55 PM 57.4 °F - 30.9 °F 37% 30.00 in 10.0 mi South 5.8 mph - N/A   Clear
1:15 PM 56.8 °F - 33.3 °F 41% 29.99 in 10.0 mi SSW 3.5 mph - N/A   Clear
1:35 PM 56.8 °F - 35.6 °F 45% 29.97 in 10.0 mi SSW 4.6 mph - N/A   Clear
1:55 PM 55.6 °F - 36.3 °F 48% 29.97 in 10.0 mi SSW 5.8 mph - N/A   Clear
2:15 PM 55.8 °F - 38.1 °F 52% 29.96 in 10.0 mi South 5.8 mph - N/A   Scattered Clouds
2:35 PM 55.4 °F - 40.3 °F 57% 29.95 in 10.0 mi SSW 8.1 mph - N/A   Clear
2:55 PM 55.0 °F - 41.9 °F 61% 29.94 in 10.0 mi South 4.6 mph - N/A   Clear
3:15 PM 55.6 °F - 42.1 °F 60% 29.93 in 10.0 mi Calm Calm - N/A   Clear
3:35 PM 57.0 °F - 42.3 °F 58% 29.94 in 10.0 mi SSW 6.9 mph - N/A   Clear
3:55 PM 55.8 °F - 41.9 °F 60% 29.95 in 10.0 mi South 6.9 mph - N/A   Clear
4:15 PM 55.4 °F - 41.5 °F 60% 29.95 in 10.0 mi South 8.1 mph - N/A   Clear
4:35 PM 54.5 °F - 42.1 °F 63% 29.95 in 10.0 mi South 4.6 mph - N/A   Clear
4:55 PM 53.6 °F - 41.9 °F 65% 29.95 in 10.0 mi South 4.6 mph - N/A   Clear
5:15 PM 52.9 °F - 41.5 °F 65% 29.95 in 10.0 mi South 3.5 mph - N/A   Clear
5:35 PM 52.2 °F - 41.0 °F 66% 29.95 in 10.0 mi South 4.6 mph - N/A   Clear
5:55 PM 51.4 °F - 41.0 °F 68% 29.95 in 10.0 mi South 3.5 mph - N/A   Clear
6:15 PM 50.7 °F - 41.0 °F 69% 29.96 in 10.0 mi South 3.5 mph - N/A   Clear
6:35 PM 50.5 °F - 40.8 °F 69% 29.96 in 10.0 mi SSE 3.5 mph - N/A   Clear
6:55 PM 50.4 °F - 40.6 °F 69% 29.95 in 10.0 mi SSE 4.6 mph - N/A   Clear
7:15 PM 50.4 °F - 40.8 °F 70% 29.95 in 10.0 mi SSE 3.5 mph - N/A   Scattered Clouds
7:35 PM 50.4 °F - 41.2 °F 71% 29.96 in 10.0 mi SSE 4.6 mph - N/A   Scattered Clouds
7:55 PM 50.0 °F - 41.4 °F 72% 29.96 in 10.0 mi SSE 4.6 mph - N/A   Scattered Clouds
8:15 PM 49.3 °F - 41.7 °F 75% 29.96 in 10.0 mi SSE 4.6 mph - N/A   Clear
8:35 PM 48.2 °F - 41.9 °F 79% 29.96 in 10.0 mi Calm Calm - N/A   Clear
8:55 PM 47.3 °F - 42.3 °F 83% 29.95 in 10.0 mi SE 3.5 mph - N/A   Clear
9:15 PM 47.3 °F - 42.8 °F 84% 29.95 in 10.0 mi SSE 3.5 mph - N/A   Clear
9:35 PM 47.5 °F - 43.3 °F 86% 29.96 in 10.0 mi SSE 3.5 mph - N/A   Clear
9:55 PM 48.2 °F - 43.7 °F 84% 29.96 in 10.0 mi Calm Calm - N/A   Clear
10:15 PM 48.2 °F - 43.9 °F 85% 29.97 in 10.0 mi Calm Calm - N/A   Clear
10:35 PM 47.7 °F - 44.2 °F 88% 29.96 in 10.0 mi SSE 3.5 mph - N/A   Clear
10:55 PM 47.7 °F - 44.6 °F 89% 29.96 in 10.0 mi SSE 3.5 mph - N/A   Scattered Clouds
11:15 PM 48.0 °F - 44.8 °F 89% 29.96 in 10.0 mi Calm Calm - N/A   Overcast
11:35 PM 48.2 °F - 45.0 °F 89% 29.96 in 10.0 mi SSE 3.5 mph - N/A   Overcast
11:55 PM 48.0 °F - 45.3 °F 90% 29.96 in 10.0 mi South 3.5 mph - N/A   Overcast